»·PEaware :: N6092U KSCK-KMFR

N6092U :: KSCK-KMFR

FLIGHT INFORMATION

Flight Status: Arrived
Operator: Privately registered:
United States
More flights under this callsign
Pilot: John M. (26206)
Aircraft: PIPER PA-28 CHEROKEE ARCHER
(P28A)
More flights by this aircraft type
Origin: KSCK Stockton Metro
United States
Destination: KMFR Rogue Valley Intl-Medford
United States
More flights between these airports :: More routes between these airports
Route: +
File this flight plan on PilotEdge
Remarks:
Altitude:
(Current/Filed)
10,500ft
Speed:
(Current/Filed)
0kts
Departed: 09-Oct-19 11:36 AM
Arrived: 09-Oct-19 01:40 PM
Distance/Time
Traveled:
279nm/2:04
Distance/Time
To Go:
Arrived

Flight Plot

Page will automatically refresh every two minutes.


Map Options




Map Legend


Flown Route
Filed Route
Departure Airport
Arrival Airport
Navaid (VOR, NDB)
Fix

Horizontal Profiles

Position Reports

Time Latitude Longitude Heading Altitude Ground
Speed
09-Oct-19 11:34 38.043668 -121.246977 338 7604ft 79kts
09-Oct-19 11:35 38.066027 -121.254812 338 8192ft 84kts
09-Oct-19 11:36 38.100335 -121.266842 337 9206ft 77kts
09-Oct-19 11:37 38.130623 -121.277584 336 10303ft 67kts
09-Oct-19 11:38 38.152128 -121.285254 338 10500ft 95kts
09-Oct-19 11:39 38.183070 -121.295830 338 10494ft 88kts
09-Oct-19 11:40 38.221971 -121.309645 337 10493ft 89kts
09-Oct-19 11:41 38.264185 -121.324562 338 10493ft 88kts
09-Oct-19 11:42 38.310133 -121.340849 337 10494ft 87kts
09-Oct-19 11:43 38.350173 -121.355052 337 10495ft 87kts
09-Oct-19 11:44 38.385828 -121.367712 337 10495ft 87kts
09-Oct-19 11:45 38.421114 -121.380320 337 10496ft 87kts
09-Oct-19 11:46 38.456492 -121.392913 337 10497ft 87kts
09-Oct-19 11:47 38.490553 -121.405041 337 10498ft 87kts
09-Oct-19 11:48 38.523174 -121.416672 337 10498ft 87kts
09-Oct-19 11:49 38.555917 -121.428355 337 10499ft 87kts
09-Oct-19 11:50 38.590244 -121.440616 337 10503ft 86kts
09-Oct-19 11:51 38.615740 -121.449732 337 10505ft 87kts
09-Oct-19 11:52 38.639052 -121.458074 337 10508ft 87kts
09-Oct-19 11:53 38.662440 -121.466445 337 10510ft 87kts
09-Oct-19 11:54 38.685736 -121.474788 337 10511ft 87kts
09-Oct-19 11:55 38.708768 -121.483044 337 10513ft 87kts
09-Oct-19 11:56 38.732014 -121.491378 337 10512ft 86kts
09-Oct-19 11:57 38.755220 -121.499714 337 10508ft 86kts
09-Oct-19 11:58 38.778420 -121.508046 338 10505ft 86kts
09-Oct-19 11:59 38.801557 -121.516361 337 10502ft 86kts
09-Oct-19 12:00 38.824649 -121.524667 337 10497ft 86kts
09-Oct-19 12:01 38.847685 -121.532961 337 10495ft 86kts
09-Oct-19 12:02 38.870741 -121.541266 337 10493ft 86kts
09-Oct-19 12:03 38.893725 -121.549550 338 10492ft 85kts
09-Oct-19 12:04 38.916657 -121.557821 339 10491ft 85kts
09-Oct-19 12:05 38.939610 -121.566106 340 10490ft 85kts
09-Oct-19 12:06 38.975984 -121.579248 341 10489ft 85kts
09-Oct-19 12:07 39.012828 -121.592570 342 10487ft 85kts
09-Oct-19 12:08 39.050404 -121.606173 343 10486ft 86kts
09-Oct-19 12:09 39.088348 -121.619928 343 10486ft 88kts
09-Oct-19 12:10 39.129766 -121.634922 343 10492ft 91kts
09-Oct-19 12:11 39.173275 -121.650707 343 10493ft 91kts
09-Oct-19 12:12 39.218290 -121.667079 343 10496ft 92kts
09-Oct-19 12:13 39.263482 -121.683539 342 10498ft 92kts
09-Oct-19 12:14 39.309197 -121.700214 342 10501ft 92kts
09-Oct-19 12:15 39.354466 -121.716750 342 10503ft 92kts
09-Oct-19 12:16 39.399751 -121.733311 342 10504ft 92kts
09-Oct-19 12:17 39.445110 -121.749922 342 10505ft 92kts
09-Oct-19 12:18 39.481652 -121.763321 342 10507ft 92kts
09-Oct-19 12:19 39.506387 -121.772401 342 10509ft 92kts
09-Oct-19 12:20 39.531421 -121.781595 342 10456ft 96kts
09-Oct-19 12:21 39.570896 -121.796096 342 10462ft 92kts
09-Oct-19 12:22 39.612149 -121.811290 342 10463ft 92kts
09-Oct-19 12:23 39.652778 -121.826265 342 10464ft 92kts
09-Oct-19 12:24 39.692327 -121.840858 342 10465ft 92kts
09-Oct-19 12:25 39.733305 -121.855998 342 10467ft 92kts
09-Oct-19 12:26 39.778907 -121.872866 342 10469ft 92kts
09-Oct-19 12:27 39.828158 -121.891110 342 10470ft 92kts
09-Oct-19 12:28 39.873959 -121.908100 342 10470ft 92kts
09-Oct-19 12:29 39.916852 -121.924034 342 10470ft 92kts
09-Oct-19 12:30 39.959228 -121.939797 342 10469ft 92kts
09-Oct-19 12:31 40.002038 -121.955742 342 10469ft 92kts
09-Oct-19 12:32 40.045118 -121.971809 342 10472ft 92kts
09-Oct-19 12:33 40.087995 -121.987822 342 10478ft 91kts
09-Oct-19 12:34 40.128863 -122.003096 342 10491ft 92kts
09-Oct-19 12:35 40.171969 -122.019221 343 10502ft 92kts
09-Oct-19 12:36 40.214359 -122.035113 343 10514ft 92kts
09-Oct-19 12:37 40.256418 -122.050900 343 10525ft 91kts
09-Oct-19 12:38 40.297551 -122.066361 343 10533ft 91kts
09-Oct-19 12:39 40.338646 -122.081827 343 10537ft 90kts
09-Oct-19 12:40 40.379381 -122.097175 343 10537ft 90kts
09-Oct-19 12:41 40.419976 -122.112489 343 10536ft 90kts
09-Oct-19 12:42 40.461058 -122.128010 343 10536ft 90kts
09-Oct-19 12:43 40.502313 -122.143617 343 10536ft 90kts
09-Oct-19 12:45 40.543410 -122.159181 343 10536ft 90kts
09-Oct-19 12:46 40.584405 -122.174727 343 10535ft 90kts
09-Oct-19 12:47 40.625183 -122.190211 343 10535ft 90kts
09-Oct-19 12:48 40.666590 -122.205954 343 10534ft 90kts
09-Oct-19 12:49 40.707862 -122.221665 343 10534ft 89kts
09-Oct-19 12:50 40.749636 -122.237591 343 10534ft 89kts
09-Oct-19 12:51 40.792199 -122.253837 343 10534ft 89kts
09-Oct-19 12:52 40.833922 -122.269781 343 10533ft 89kts
09-Oct-19 12:53 40.875946 -122.285865 343 10533ft 89kts
09-Oct-19 12:54 40.917821 -122.301910 343 10532ft 89kts
09-Oct-19 12:55 40.958625 -122.317569 343 10533ft 89kts
09-Oct-19 12:56 40.999276 -122.333189 344 10532ft 89kts
09-Oct-19 12:57 41.039656 -122.347758 354 10532ft 89kts
09-Oct-19 12:58 41.082079 -122.352538 355 10532ft 89kts
09-Oct-19 12:59 41.122876 -122.358503 356 10539ft 91kts
09-Oct-19 13:00 41.166159 -122.365586 355 10579ft 91kts
09-Oct-19 13:01 41.208611 -122.372463 355 10621ft 92kts
09-Oct-19 13:02 41.238446 -122.377489 355 10640ft 93kts
09-Oct-19 13:03 41.264322 -122.381906 355 10665ft 94kts
09-Oct-19 13:04 41.290250 -122.386372 355 10684ft 95kts
09-Oct-19 13:05 41.333791 -122.393849 355 10683ft 95kts
09-Oct-19 13:06 41.377958 -122.401416 355 10683ft 95kts
09-Oct-19 13:06 41.414744 -122.411955 344 10683ft 97kts
09-Oct-19 13:07 41.459057 -122.434055 345 10683ft 97kts
09-Oct-19 13:09 41.511646 -122.458964 345 10682ft 97kts
09-Oct-19 13:09 41.548840 -122.476600 345 10682ft 97kts
09-Oct-19 13:10 41.593444 -122.497779 345 10682ft 97kts
09-Oct-19 13:11 41.637842 -122.518891 345 10682ft 97kts
09-Oct-19 13:13 41.689436 -122.543463 345 10682ft 96kts
09-Oct-19 13:13 41.726362 -122.561076 345 10681ft 96kts
09-Oct-19 13:14 41.771097 -122.582442 345 10681ft 96kts
09-Oct-19 13:15 41.809673 -122.600891 345 10681ft 96kts
09-Oct-19 13:16 41.835000 -122.613017 345 10681ft 96kts
09-Oct-19 13:17 41.860291 -122.625137 345 10681ft 96kts
09-Oct-19 13:18 41.885468 -122.637211 345 10680ft 96kts
09-Oct-19 13:19 41.911097 -122.649435 345 10597ft 102kts
09-Oct-19 13:20 41.938105 -122.662398 345 10475ft 100kts
09-Oct-19 13:21 41.963857 -122.674814 345 10477ft 97kts
09-Oct-19 13:22 41.989153 -122.686987 345 10479ft 96kts
09-Oct-19 13:23 42.014382 -122.699139 345 10481ft 96kts
09-Oct-19 13:24 42.039537 -122.711265 345 10485ft 96kts
09-Oct-19 13:25 42.066784 -122.723262 347 10100ft 111kts
09-Oct-19 13:26 42.096812 -122.734401 347 9578ft 112kts
09-Oct-19 13:27 42.126710 -122.745236 348 9092ft 113kts
09-Oct-19 13:28 42.157225 -122.756001 348 8601ft 113kts
09-Oct-19 13:29 42.187737 -122.766476 348 8110ft 113kts
09-Oct-19 13:30 42.218530 -122.776756 348 7617ft 114kts
09-Oct-19 13:31 42.249641 -122.786856 348 7095ft 117kts
09-Oct-19 13:32 42.283248 -122.797860 345 6103ft 127kts
09-Oct-19 13:33 42.316412 -122.812441 338 5102ft 124kts
09-Oct-19 13:34 42.348453 -122.830885 335 3787ft 121kts
09-Oct-19 13:35 42.375126 -122.848306 335 3293ft 94kts
09-Oct-19 13:36 42.398611 -122.863475 338 3295ft 92kts
09-Oct-19 13:37 42.410752 -122.883995 271 2751ft 76kts
09-Oct-19 13:38 42.391653 -122.882087 158 1551ft 75kts
09-Oct-19 13:39 42.380673 -122.876903 237 1302ft 16kts
09-Oct-19 13:40 42.380490 -122.877314 238 1302ft 1kts
09-Oct-19 13:41 42.380036 -122.879031 318 1302ft 9kts
09-Oct-19 13:42 42.380148 -122.879303 246 1302ft 0kts
09-Oct-19 13:43 42.380148 -122.879303 246 1302ft 0kts
09-Oct-19 13:44 42.380148 -122.879303 246 1302ft 0kts
09-Oct-19 13:45 42.380148 -122.879303 246 1302ft 0kts
09-Oct-19 13:46 42.380148 -122.879303 246 1302ft 0kts
09-Oct-19 13:47 42.380148 -122.879303 246 1302ft 0kts
09-Oct-19 13:48 42.380148 -122.879303 246 1302ft 0kts
09-Oct-19 13:49 42.380148 -122.879303 246 1302ft 0kts
09-Oct-19 13:50 42.380148 -122.879303 246 1302ft 0kts
09-Oct-19 13:51 42.380148 -122.879303 246 1302ft 0kts
09-Oct-19 13:52 42.380148 -122.879303 246 1302ft 0kts
09-Oct-19 13:53 42.380148 -122.879303 246 1302ft 0kts
09-Oct-19 13:54 42.380148 -122.879303 246 1302ft 0kts

Navigation Log

Ident Type
Flight plan parsing failed, navigation log unavailable